Detall de PIREP

Printer-friendly versionPDF version

[2014/11/28 09:02:00]
Flight IATA:CT3251
Pilot Number:042
Company ICAO:CAT
Aircraft Type:A320/E
PAX:95
Departing Airport: EYVI
Destination Airport: LEPA
Alternate Airport:LEMH
Online: VATSIM
Route:LAVAR L29 VABER L735 SUW M857 BULEP N869 XATOG M985 EVINA N744 TUSIN UM984 PADKO UY38 VATIR UN852 VERSO UL129 LUNIK
Flight Level:F350
No Slew and time accel
No pause
Crash detect
Detect pilot in Cockpit between each 30 and 45 minutes
09:02 Zero fuel Weight: 94625 Lbs, Fuel Weight: 41832 Lbs
09:02 VATSIM:EYVI 280850Z 07006KT 040V120 7000 SCT040 BKN055 M07/M09 Q1031 R02/5/0195 NOSIG
09:02 VATSIM:LEPA 280830Z 13007KT 100V160 9999 FEW020 18/15 Q0996 NOSIG
09:07 Parking Brakes off
09:18 Take-off
09:18 Take off Weight: 160686 Lbs
09:18 Wind: 190º @ 012 Knots Heading: 022º
09:18 POS N54º 38´ 26´´ E025º 17´ 25´´
09:18 Gear Up: 139 Knots
09:18 Flaps:3 at 139 Knots
09:19 Flaps:2 at 161 Knots
09:19 Flaps:0 at 207 Knots
09:33 Wind:270º@016 Knots Heading: 250º Ground Speed: 456 Knots Altitude 27654 ft
09:41 TOC
09:41 Fuel Weight: 37272 Lb
09:48 Wind:086º@016 Knots Heading: 240º Ground Speed: 460 Knots Altitude 35433 ft
10:03 Wind:090º@034 Knots Heading: 210º Ground Speed: 466 Knots Altitude 35383 ft
10:18 Wind:090º@038 Knots Heading: 228º Ground Speed: 476 Knots Altitude 35374 ft
10:33 Wind:090º@034 Knots Heading: 224º Ground Speed: 471 Knots Altitude 37352 ft
10:48 Wind:088º@033 Knots Heading: 252º Ground Speed: 481 Knots Altitude 37309 ft
11:03 Wind:069º@029 Knots Heading: 242º Ground Speed: 477 Knots Altitude 37227 ft
11:18 Wind:055º@026 Knots Heading: 232º Ground Speed: 475 Knots Altitude 37257 ft
11:33 Wind:052º@018 Knots Heading: 229º Ground Speed: 470 Knots Altitude 37237 ft
11:48 Wind:047º@021 Knots Heading: 220º Ground Speed: 470 Knots Altitude 37165 ft
12:03 Wind:006º@021 Knots Heading: 189º Ground Speed: 470 Knots Altitude 37135 ft
12:05 TOD
12:05 Fuel Weight: 25196 Lb
12:18 Wind:331º@016 Knots Heading: 171º Ground Speed: 278 Knots Altitude 14019 ft
12:25 Flaps:1 at 213 Knots
12:25 Flaps:3 at 197 Knots
12:28 Flaps:4 at 174 Knots
12:29 Gear Down: 168 Knots
12:29 Flaps:5 at 173 Knots
12:31 TOC
12:31 Fuel Weight: 24307 Lb
12:31 TouchDown:Rate -419 ft/min Speed: 160 Knots
12:31 VATSIM:LEPA 281200Z 16014G24KT 120V200 9999 FEW025 21/12 Q0995 NOSIG
12:31 Land
12:31 Wind:235º@007 Knots
12:31 Heading: 243º
12:31 Flight Duration: 03:13
12:31 Landing Weight: 143805 Lbs
12:31 POS N39º 32´ 40´´ E002º 44´ 20´´
12:33 Parking brakes on
12:33 Block to Block Duration: 03:26
12:33 Final Fuel: 24098 Lbls
12:33 Spent Fuel: 17733 Lbls
12:33 Flight Length: 1399 NM
12:33 TOD Land Length: 118 NM

Exportar CSV

Powered by Drupal - Modified by Danger4k